Time;durP1;ratioP1;P1;durP2;ratioP2;P2;SDS_P1;SDS_P2;PMS_P1;PMS_P2;Temp;Humidity;BMP_temperature;BMP_pressure;BME280_temperature;BME280_humidity;BME280_pressure;Samples;Min_cycle;Max_cycle;Signal;HPM_P1;HPM_P2
2023/01/04 00:03:19;;;;;;;9.77;2.47;;;;;;;6.73;100.00;101807.50;4917129;29;20039;-83
2023/01/04 00:09:06;;;;;;;9.05;2.78;;;;;;;6.72;100.00;101810.34;4917157;29;20043;-83
2023/01/04 00:15:21;;;;;;;13.75;2.97;;;;;;;6.73;100.00;101788.63;4917107;29;20043;-84
2023/01/04 00:21:15;;;;;;;8.73;1.88;;;;;;;6.76;100.00;101777.50;4917259;29;20062;-83
2023/01/04 00:27:02;;;;;;;10.63;2.23;;;;;;;6.79;100.00;101758.28;4917267;29;20505;-83
2023/01/04 00:29:28;;;;;;;14.88;2.95;;;;;;;6.80;100.00;101748.31;4900646;29;20036;-83
2023/01/04 00:31:53;;;;;;;14.63;3.23;;;;;;;6.84;100.00;101757.78;4916137;29;20389;-83
2023/01/04 00:34:37;;;;;;;9.13;2.60;;;;;;;6.82;100.00;101741.75;4884966;29;20036;-83
2023/01/04 00:37:02;;;;;;;12.00;3.00;;;;;;;6.88;100.00;101733.97;4917590;29;20051;-83
2023/01/04 00:39:28;;;;;;;8.17;2.00;;;;;;;6.97;100.00;101746.47;4884236;29;20062;-83
2023/01/04 00:42:03;;;;;;;13.50;2.72;;;;;;;6.94;100.00;101746.78;4915740;29;20033;-83
2023/01/04 00:48:01;;;;;;;5.85;3.10;;;;;;;6.98;100.00;101727.41;4862356;29;20443;-83
2023/01/04 00:53:58;;;;;;;8.98;3.17;;;;;;;6.99;100.00;101723.69;4862673;29;20140;-83
2023/01/04 00:59:46;;;;;;;9.98;3.13;;;;;;;7.09;100.00;101707.31;4862261;29;20134;-84
2023/01/04 01:02:11;;;;;;;9.45;2.53;;;;;;;7.14;100.00;101704.09;4861629;29;20040;-83
2023/01/04 01:04:37;;;;;;;11.43;3.00;;;;;;;7.11;100.00;101701.75;4861801;29;20053;-83
2023/01/04 01:10:24;;;;;;;4.70;2.33;;;;;;;7.19;100.00;101742.25;4861877;29;20045;-83
2023/01/04 01:12:49;;;;;;;7.37;2.57;;;;;;;7.18;100.00;101692.78;4861666;29;20041;-83
2023/01/04 01:15:15;;;;;;;9.23;2.17;;;;;;;7.22;100.00;101698.69;4880141;29;20502;-83
2023/01/04 01:17:40;;;;;;;4.85;1.58;;;;;;;7.27;100.00;101690.09;4918742;29;20091;-83
2023/01/04 01:20:07;;;;;;;5.50;1.73;;;;;;;7.27;100.00;101693.63;4919022;29;20091;-83
2023/01/04 01:22:34;;;;;;;6.45;2.70;;;;;;;7.28;100.00;101692.63;4920351;29;20032;-83
2023/01/04 01:25:00;;;;;;;6.40;2.28;;;;;;;7.26;100.00;101683.81;4918563;29;20032;-83
2023/01/04 01:27:25;;;;;;;7.70;2.30;;;;;;;7.28;100.00;101686.34;4919099;29;20172;-82
2023/01/04 01:33:14;;;;;;;5.63;1.65;;;;;;;7.33;100.00;101678.59;4919553;29;20039;-83
2023/01/04 01:35:39;;;;;;;3.83;1.65;;;;;;;7.31;100.00;101673.38;4918060;29;20048;-83
2023/01/04 01:38:05;;;;;;;15.43;2.43;;;;;;;7.31;100.00;101688.72;4902579;29;20095;-83
2023/01/04 01:40:30;;;;;;;7.27;2.70;;;;;;;7.31;100.00;101673.38;4918636;29;20097;-84
2023/01/04 01:42:56;;;;;;;7.17;2.27;;;;;;;7.36;100.00;101699.84;4918203;29;20127;-83
2023/01/04 01:48:38;;;;;;;3.67;1.87;;;;;;;7.39;100.00;101659.00;4919778;29;20055;-84
2023/01/04 01:54:30;;;;;;;4.38;2.10;;;;;;;7.40;100.00;101673.31;4919385;29;20047;-84
2023/01/04 02:00:36;;;;;;;5.50;2.03;;;;;;;7.44;100.00;101656.63;4919289;29;20043;-84
2023/01/04 02:03:08;;;;;;;7.07;2.67;;;;;;;7.46;100.00;101646.47;4902102;29;20039;-84
2023/01/04 02:05:35;;;;;;;5.10;1.65;;;;;;;7.52;100.00;101658.44;4918093;29;20036;-84
2023/01/04 02:08:02;;;;;;;6.22;2.90;;;;;;;7.50;100.00;101655.91;4919044;29;20028;-84
2023/01/04 02:10:28;;;;;;;6.40;2.42;;;;;;;7.52;100.00;101666.53;4919238;29;20433;-84
2023/01/04 02:16:29;;;;;;;4.45;1.67;;;;;;;7.59;100.00;101682.88;4918740;29;20087;-84
2023/01/04 02:19:15;;;;;;;6.82;2.17;;;;;;;7.58;100.00;101676.63;4917829;29;20028;-84
2023/01/04 02:31:56;;;;;;;5.22;1.52;;;;;;;7.76;100.00;101673.69;4860352;29;20081;-83
2023/01/04 02:52:00;;;;;;;2.28;1.60;;;;;;;7.89;100.00;101652.31;4859302;29;20041;-83
2023/01/04 02:58:21;;;;;;;3.95;1.63;;;;;;;7.89;100.00;101613.66;4918027;29;20409;-84
2023/01/04 03:08:04;;;;;;;3.42;1.90;;;;;;;7.95;100.00;101601.31;4918083;29;20126;-86
2023/01/04 03:10:40;;;;;;;2.63;1.25;;;;;;;8.01;100.00;101596.00;4916272;29;20095;-87
2023/01/04 03:13:27;;;;;;;4.82;1.63;;;;;;;7.96;100.00;101595.72;4916294;29;20043;-87
2023/01/04 03:16:16;;;;;;;2.57;1.43;;;;;;;7.97;100.00;101586.59;4916643;29;20043;-87
2023/01/04 03:18:49;;;;;;;6.55;1.88;;;;;;;8.01;100.00;101578.97;4916791;29;20024;-87
2023/01/04 03:21:17;;;;;;;8.48;2.17;;;;;;;8.01;100.00;101587.06;4916851;29;20024;-87
2023/01/04 03:35:36;;;;;;;2.90;2.05;;;;;;;8.16;100.00;101585.25;4917654;29;20108;-87
2023/01/04 03:49:56;;;;;;;7.00;3.00;;;;;;;8.22;100.00;101545.84;4917910;29;20039;-86
2023/01/04 03:52:28;;;;;;;6.47;2.97;;;;;;;8.25;100.00;101537.38;4916103;29;20039;-88
2023/01/04 03:54:58;;;;;;;4.70;3.38;;;;;;;8.23;100.00;101534.00;4916398;29;20036;-86
2023/01/04 03:57:29;;;;;;;7.00;2.90;;;;;;;8.25;100.00;101537.38;4917474;29;20040;-87
2023/01/04 04:00:05;;;;;;;5.28;2.97;;;;;;;8.28;100.00;101522.66;4917501;29;20033;-87
2023/01/04 04:02:44;;;;;;;4.82;2.33;;;;;;;8.41;100.00;101544.47;4916063;29;20119;-87
2023/01/04 04:10:53;;;;;;;3.90;2.93;;;;;;;8.42;100.00;101529.94;4906629;29;20043;-86
2023/01/04 04:13:21;;;;;;;3.10;2.25;;;;;;;8.39;100.00;101530.31;4916608;29;20028;-87
2023/01/04 04:15:47;;;;;;;7.10;2.85;;;;;;;8.40;100.00;101519.31;4915806;29;20032;-87
2023/01/04 04:18:15;;;;;;;5.53;3.00;;;;;;;8.49;100.00;101512.00;4916120;29;20039;-87
2023/01/04 04:20:44;;;;;;;3.37;2.57;;;;;;;8.48;100.00;101512.19;4900553;29;20036;-87
2023/01/04 04:23:11;;;;;;;6.40;3.08;;;;;;;8.47;100.00;101494.25;4919718;29;20034;-86
2023/01/04 04:25:48;;;;;;;4.78;2.72;;;;;;;8.46;100.00;101492.56;4903641;29;20044;-87
2023/01/04 04:28:18;;;;;;;3.78;2.58;;;;;;;8.50;100.00;101494.72;4919958;29;20036;-86
2023/01/04 04:30:49;;;;;;;7.50;3.10;;;;;;;8.52;100.00;101499.94;4920393;29;20032;-87
2023/01/04 04:33:20;;;;;;;4.77;2.87;;;;;;;8.55;100.00;101500.44;4904652;29;20047;-87
2023/01/04 04:35:52;;;;;;;5.95;3.25;;;;;;;8.56;100.00;101507.53;4904201;29;20036;-87
2023/01/04 04:38:25;;;;;;;6.30;3.45;;;;;;;8.60;100.00;101484.47;4919184;29;20405;-86
2023/01/04 04:43:51;;;;;;;5.03;2.70;;;;;;;8.70;100.00;101465.25;4920943;29;20050;-87
2023/01/04 04:46:19;;;;;;;7.30;3.47;;;;;;;8.64;100.00;101459.78;4919121;29;20039;-88
2023/01/04 04:48:56;;;;;;;7.60;3.58;;;;;;;8.66;100.00;101458.53;4918979;29;20134;-87
2023/01/04 04:51:29;;;;;;;7.72;3.50;;;;;;;8.70;100.00;101476.06;4919170;29;20036;-88
2023/01/04 04:53:59;;;;;;;10.30;3.75;;;;;;;8.68;100.00;101475.44;4923083;29;20033;-87
2023/01/04 04:56:37;;;;;;;6.70;3.67;;;;;;;8.73;100.00;101488.41;4923078;29;20096;-88
2023/01/04 04:59:08;;;;;;;9.27;3.50;;;;;;;8.74;100.00;101460.28;4906598;29;20066;-87
2023/01/04 05:01:34;;;;;;;5.72;3.17;;;;;;;8.78;100.00;101470.56;4920265;29;20072;-87
2023/01/04 05:04:13;;;;;;;7.55;4.03;;;;;;;8.79;100.00;101449.75;4919042;29;20062;-87
2023/01/04 05:06:43;;;;;;;4.88;2.40;;;;;;;8.84;100.00;101444.59;4919091;29;20035;-87
2023/01/04 05:09:12;;;;;;;5.82;3.38;;;;;;;8.83;100.00;101453.78;4918724;29;20151;-87
2023/01/04 05:14:27;;;;;;;5.18;2.53;;;;;;;8.85;100.00;101459.00;4920665;29;20099;-88
2023/01/04 05:16:53;;;;;;;5.55;3.20;;;;;;;8.89;100.00;101438.66;4918657;29;20084;-87
2023/01/04 05:19:23;;;;;;;5.13;2.55;;;;;;;8.88;100.00;101458.59;4918320;29;20032;-87
2023/01/04 05:21:53;;;;;;;4.65;2.60;;;;;;;8.89;100.00;101427.81;4920240;29;20042;-87
2023/01/04 05:24:24;;;;;;;7.00;2.90;;;;;;;8.94;100.00;101430.78;4903011;29;20127;-87
2023/01/04 05:26:50;;;;;;;4.67;3.17;;;;;;;8.93;100.00;101427.25;4918703;29;20068;-88
2023/01/04 05:32:09;;;;;;;5.20;2.78;;;;;;;9.03;100.00;101423.38;4918929;29;20096;-87
2023/01/04 05:34:42;;;;;;;6.23;1.93;;;;;;;9.02;100.00;101427.13;4918159;29;20028;-88
2023/01/04 05:37:10;;;;;;;6.93;2.42;;;;;;;9.03;100.00;101428.81;4918025;29;20048;-87
2023/01/04 05:39:36;;;;;;;6.80;2.55;;;;;;;9.04;100.00;101412.38;4887928;29;20061;-87
2023/01/04 05:44:53;;;;;;;5.68;2.38;;;;;;;9.10;100.00;101408.88;4918726;29;20579;-88
2023/01/04 05:47:32;;;;;;;;;;;;;;;;;;;;;
2023/01/04 05:50:00;;;;;;;7.57;2.55;;;;;;;9.13;100.00;101449.13;4920219;29;20040;-87
2023/01/04 05:52:33;;;;;;;5.53;2.60;;;;;;;9.21;100.00;101425.66;4917943;29;20036;-87
2023/01/04 05:55:08;;;;;;;5.68;2.53;;;;;;;9.15;100.00;101411.03;4917906;29;20040;-87
2023/01/04 05:57:41;;;;;;;2.72;1.63;;;;;;;9.20;100.00;101403.16;4918302;29;20087;-87
2023/01/04 06:00:08;;;;;;;8.68;3.15;;;;;;;9.14;100.00;101390.41;4919124;29;20036;-87
2023/01/04 06:02:34;;;;;;;6.57;2.78;;;;;;;9.15;100.00;101397.47;4917431;29;20478;-87
2023/01/04 06:05:02;;;;;;;5.40;2.33;;;;;;;9.16;100.00;101403.75;4917557;29;20032;-87
2023/01/04 06:07:31;;;;;;;5.63;2.22;;;;;;;9.20;100.00;101399.63;4918300;29;20063;-87
2023/01/04 06:09:59;;;;;;;5.13;2.42;;;;;;;9.20;100.00;101400.47;4917627;29;20055;-87
2023/01/04 06:12:27;;;;;;;7.60;2.30;;;;;;;9.26;100.00;101410.53;4918980;29;20043;-87
2023/01/04 06:14:55;;;;;;;5.23;2.10;;;;;;;9.26;100.00;101418.66;4917713;29;20051;-87
2023/01/04 06:17:20;;;;;;;7.35;2.58;;;;;;;9.33;100.00;101421.44;4901371;29;20122;-87
2023/01/04 06:19:46;;;;;;;5.97;2.13;;;;;;;9.27;100.00;101403.22;4918075;29;20039;-86
2023/01/04 06:22:19;;;;;;;5.20;2.40;;;;;;;9.30;100.00;101427.22;4918536;29;20448;-86
2023/01/04 06:24:46;;;;;;;6.40;2.28;;;;;;;9.34;100.00;101419.56;4917716;29;20032;-86
2023/01/04 06:27:14;;;;;;;2.97;2.00;;;;;;;9.39;100.00;101412.53;4917703;29;20043;-87
2023/01/04 06:29:45;;;;;;;5.43;2.42;;;;;;;9.36;100.00;101396.66;4901463;29;20032;-87
2023/01/04 06:32:11;;;;;;;5.10;2.70;;;;;;;9.35;100.00;101392.28;4917114;29;20079;-88
2023/01/04 06:34:43;;;;;;;3.83;2.77;;;;;;;9.30;100.00;101386.59;4916148;29;20074;-87
2023/01/04 06:37:12;;;;;;;5.45;2.28;;;;;;;9.33;100.00;101374.53;4917426;29;20084;-87
2023/01/04 06:39:40;;;;;;;8.55;2.78;;;;;;;9.35;100.00;101381.44;4917454;29;20442;-86
2023/01/04 06:42:43;;;;;;;4.40;3.20;;;;;;;9.33;100.00;101401.63;4918759;29;20036;-86
2023/01/04 06:44:53;;;;;;;7.35;3.00;;;;;;;9.36;100.00;101393.97;4917547;29;20028;-86
2023/01/04 06:47:21;;;;;;;4.63;2.70;;;;;;;9.35;100.00;101416.66;4917121;29;20040;-87
2023/01/04 06:49:54;;;;;;;5.97;2.75;;;;;;;9.36;100.00;101420.19;4918534;29;20044;-86
2023/01/04 06:52:19;;;;;;;4.25;2.72;;;;;;;9.34;100.00;101403.31;4917499;29;20043;-87
2023/01/04 06:54:45;;;;;;;3.70;2.53;;;;;;;9.37;100.00;101401.03;4915943;29;20114;-86
2023/01/04 06:57:14;;;;;;;4.32;2.88;;;;;;;9.38;100.00;101396.47;4918444;29;20036;-86
2023/01/04 06:59:42;;;;;;;6.50;3.17;;;;;;;9.41;100.00;101394.19;4918448;29;20464;-85
2023/01/04 07:02:13;;;;;;;3.70;2.90;;;;;;;9.44;100.00;101385.69;4916699;29;20126;-85
2023/01/04 07:04:39;;;;;;;5.10;2.53;;;;;;;9.48;100.00;101394.28;4916575;29;20084;-86
2023/01/04 07:07:07;;;;;;;6.40;2.67;;;;;;;9.44;100.00;101433.63;4917697;29;20032;-86
2023/01/04 07:09:32;;;;;;;3.38;2.50;;;;;;;9.47;100.00;101392.59;4916961;29;20039;-86
2023/01/04 07:12:00;;;;;;;2.93;2.13;;;;;;;9.47;100.00;101373.63;4916424;29;20068;-87
2023/01/04 07:14:28;;;;;;;4.68;2.42;;;;;;;9.49;100.00;101379.69;4917538;29;20283;-87
2023/01/04 07:16:53;;;;;;;2.85;2.10;;;;;;;9.48;100.00;101381.56;4901580;29;20048;-86
2023/01/04 07:19:19;;;;;;;4.43;1.73;;;;;;;9.53;100.00;101380.97;4917757;29;20091;-86
2023/01/04 07:21:44;;;;;;;6.28;2.00;;;;;;;9.53;100.00;101358.47;4917769;29;20032;-87
2023/01/04 07:24:13;;;;;;;2.80;1.43;;;;;;;9.57;100.00;101368.72;4916302;29;20020;-87
2023/01/04 07:26:41;;;;;;;4.60;1.80;;;;;;;9.62;100.00;101360.81;4916237;29;20043;-87
2023/01/04 07:29:18;;;;;;;3.35;1.50;;;;;;;9.57;100.00;101370.59;4916817;29;20441;-86
2023/01/04 07:31:46;;;;;;;4.90;1.40;;;;;;;9.55;100.00;101365.38;4916477;29;20469;-86
2023/01/04 07:34:12;;;;;;;2.95;1.00;;;;;;;9.62;100.00;101363.53;4916357;29;20032;-86
2023/01/04 07:36:38;;;;;;;5.30;1.25;;;;;;;9.64;100.00;101360.63;4916418;29;20083;-86
2023/01/04 07:39:04;;;;;;;3.55;1.20;;;;;;;9.62;100.00;101341.84;4916197;29;20503;-86
2023/01/04 07:41:35;;;;;;;4.93;1.30;;;;;;;9.63;100.00;101351.66;4917489;29;20115;-86
2023/01/04 07:44:04;;;;;;;5.20;1.10;;;;;;;9.62;100.00;101354.56;4916828;29;20529;-86
2023/01/04 07:46:32;;;;;;;3.88;1.02;;;;;;;9.70;100.00;101349.03;4916255;29;20067;-86
2023/01/04 07:49:03;;;;;;;2.72;0.98;;;;;;;9.74;100.00;101344.84;4916341;29;20123;-87
2023/01/04 07:51:37;;;;;;;4.07;0.95;;;;;;;9.77;100.00;101340.91;4917546;29;20055;-86
2023/01/04 07:54:05;;;;;;;6.20;1.00;;;;;;;9.86;100.00;101339.72;4916158;29;20036;-87
2023/01/04 07:56:35;;;;;;;3.88;0.90;;;;;;;9.86;100.00;101342.44;4921758;29;20044;-87
2023/01/04 07:59:01;;;;;;;4.38;1.20;;;;;;;9.90;100.00;101332.88;4923135;29;20038;-87
2023/01/04 08:01:37;;;;;;;4.38;1.20;;;;;;;10.03;100.00;101315.03;4919993;29;20478;-87
2023/01/04 08:04:06;;;;;;;3.80;1.00;;;;;;;10.08;100.00;101336.94;4920787;29;20046;-88
2023/01/04 08:06:37;;;;;;;4.45;0.90;;;;;;;10.01;100.00;101320.66;4919917;29;20462;-88
2023/01/04 08:09:04;;;;;;;5.50;1.05;;;;;;;10.08;100.00;101337.78;4920168;29;20044;-88
2023/01/04 08:11:31;;;;;;;7.30;1.25;;;;;;;10.06;100.00;101336.31;4919783;29;20469;-87
2023/01/04 08:13:59;;;;;;;2.33;1.00;;;;;;;10.04;100.00;101341.94;4919700;29;20028;-87
2023/01/04 08:16:39;;;;;;;5.03;1.17;;;;;;;10.09;100.00;101334.03;4919925;29;20103;-88
2023/01/04 08:19:14;;;;;;;3.40;1.40;;;;;;;10.11;100.00;101336.53;4920394;29;20067;-87
2023/01/04 08:21:42;;;;;;;3.35;1.00;;;;;;;10.21;100.00;101349.75;4905331;29;20085;-88
2023/01/04 08:24:26;;;;;;;6.40;1.13;;;;;;;10.16;100.00;101329.47;4919366;29;20465;-87
2023/01/04 08:26:53;;;;;;;7.05;1.27;;;;;;;10.22;100.00;101349.53;4919491;29;20556;-87
2023/01/04 08:29:32;;;;;;;4.20;1.00;;;;;;;10.26;100.00;101342.69;4919652;29;20032;-87
2023/01/04 08:31:57;;;;;;;6.57;0.90;;;;;;;10.34;100.00;101356.09;4920266;29;20115;-86
2023/01/04 08:34:25;;;;;;;5.72;0.95;;;;;;;10.33;100.00;101354.44;4920876;29;20115;-87
2023/01/04 08:36:52;;;;;;;5.57;1.08;;;;;;;10.28;100.00;101362.28;4920690;29;20111;-86
2023/01/04 08:39:28;;;;;;;5.07;1.10;;;;;;;10.29;100.00;101365.84;4920985;29;20168;-87
2023/01/04 08:41:56;;;;;;;3.67;1.23;;;;;;;10.26;100.00;101347.25;4919374;29;20147;-87
2023/01/04 08:44:23;;;;;;;5.63;0.98;;;;;;;10.30;100.00;101357.50;4919377;29;20532;-87
2023/01/04 08:46:50;;;;;;;6.65;1.00;;;;;;;10.37;100.00;101375.72;4919209;29;20043;-87
2023/01/04 08:49:25;;;;;;;4.43;1.00;;;;;;;10.31;100.00;101361.88;4919188;29;20035;-86
2023/01/04 08:51:52;;;;;;;5.65;1.10;;;;;;;10.34;100.00;101379.69;4919303;29;20034;-86
2023/01/04 08:54:21;;;;;;;5.50;1.00;;;;;;;10.40;100.00;101378.03;4904173;29;20135;-86
2023/01/04 08:56:47;;;;;;;4.47;1.20;;;;;;;10.40;100.00;101365.31;4903096;29;20080;-86
2023/01/04 08:59:13;;;;;;;6.87;1.00;;;;;;;10.45;100.00;101368.28;4920214;29;20473;-87
2023/01/04 09:01:39;;;;;;;4.47;1.30;;;;;;;10.56;100.00;101377.69;4918613;29;20032;-87
2023/01/04 09:04:05;;;;;;;2.63;0.95;;;;;;;10.57;100.00;101375.81;4918131;29;20037;-87
2023/01/04 09:06:30;;;;;;;5.28;0.90;;;;;;;10.57;100.00;101356.81;4918298;29;20044;-87
2023/01/04 09:09:05;;;;;;;6.07;0.90;;;;;;;10.57;100.00;101363.09;4919817;29;20036;-87
2023/01/04 09:11:34;;;;;;;5.32;1.80;;;;;;;10.64;100.00;101363.94;4918925;29;20204;-87
2023/01/04 09:14:02;;;;;;;4.72;0.88;;;;;;;10.63;100.00;101364.13;4918630;29;20036;-87
2023/01/04 09:16:31;;;;;;;6.55;0.75;;;;;;;10.57;100.00;101368.53;4918988;29;20092;-87
2023/01/04 09:18:59;;;;;;;3.45;0.63;;;;;;;10.56;100.00;101385.84;4919718;29;20111;-87
2023/01/04 09:21:27;;;;;;;2.43;0.90;;;;;;;10.47;100.00;101349.91;4902824;29;20444;-87
2023/01/04 09:24:02;;;;;;;3.80;0.73;;;;;;;10.42;100.00;101346.94;4918399;29;20031;-87
2023/01/04 09:26:29;;;;;;;4.25;1.10;;;;;;;10.38;100.00;101359.25;4918587;29;20024;-86
2023/01/04 09:29:03;;;;;;;4.78;0.95;;;;;;;10.32;100.00;101382.56;4919338;29;20032;-87
2023/01/04 09:31:28;;;;;;;2.97;0.93;;;;;;;10.30;100.00;101365.63;4919878;29;20035;-87
2023/01/04 09:34:05;;;;;;;3.83;0.90;;;;;;;10.31;100.00;101388.19;4918813;29;20119;-86
2023/01/04 09:36:31;;;;;;;5.00;0.80;;;;;;;10.27;100.00;101366.03;4921495;29;20043;-86
2023/01/04 09:39:08;;;;;;;3.93;0.80;;;;;;;10.24;100.00;101366.44;4919342;29;20052;-87
2023/01/04 09:41:57;;;;;;;8.77;1.35;;;;;;;10.21;100.00;101366.03;4918910;29;20107;-87
2023/01/04 09:44:48;;;;;;;2.38;1.10;;;;;;;10.21;100.00;101377.69;4918857;29;20032;-87
2023/01/04 09:47:28;;;;;;;4.68;1.48;;;;;;;10.13;100.00;101365.13;4919529;29;20105;-87
2023/01/04 09:50:01;;;;;;;10.60;2.07;;;;;;;10.10;100.00;101368.25;4918464;29;20036;-86
2023/01/04 09:52:52;;;;;;;3.83;1.17;;;;;;;10.11;100.00;101369.06;4919356;29;20051;-86
2023/01/04 09:55:48;;;;;;;4.70;1.85;;;;;;;10.12;100.00;101359.91;4918347;29;20131;-86
2023/01/04 09:58:29;;;;;;;4.65;1.70;;;;;;;10.16;100.00;101361.19;4919444;29;20040;-86
2023/01/04 10:01:03;;;;;;;9.07;3.13;;;;;;;10.16;100.00;101367.44;4918004;29;20119;-87
2023/01/04 10:03:51;;;;;;;;;;;;;;;;;;;;;
2023/01/04 10:06:18;;;;;;;6.07;2.33;;;;;;;10.16;100.00;101366.63;4922343;29;20036;-87
2023/01/04 10:08:44;;;;;;;6.03;2.08;;;;;;;10.16;100.00;101358.50;4917096;29;20107;-87
2023/01/04 10:11:29;;;;;;;8.02;2.42;;;;;;;10.22;100.00;101356.84;4917271;29;20426;-87
2023/01/04 10:14:34;;;;;;;5.43;2.30;;;;;;;10.21;100.00;101358.72;4917539;29;20036;-87
2023/01/04 10:17:18;;;;;;;5.70;2.78;;;;;;;10.22;100.00;101338.69;4917428;29;20040;-88
2023/01/04 10:20:25;;;;;;;8.60;2.42;;;;;;;10.16;100.00;101363.91;4916391;29;20040;-88
2023/01/04 10:23:24;;;;;;;10.35;2.67;;;;;;;10.21;100.00;101357.88;4871730;29;20068;-87
2023/01/04 10:26:08;;;;;;;8.68;2.80;;;;;;;10.23;100.00;101355.78;4918001;29;20032;-87
2023/01/04 10:29:15;;;;;;;8.73;2.90;;;;;;;10.24;100.00;101344.75;4918867;29;20028;-87
2023/01/04 10:31:49;;;;;;;6.50;3.10;;;;;;;10.23;100.00;101350.38;4917229;29;20035;-86
2023/01/04 10:34:36;;;;;;;7.65;2.72;;;;;;;10.20;100.00;101340.75;4917518;29;20044;-87
2023/01/04 10:37:21;;;;;;;15.77;3.60;;;;;;;10.20;100.00;101365.16;4902973;29;20448;-88
2023/01/04 10:39:54;;;;;;;9.02;2.47;;;;;;;10.18;100.00;101337.41;4917178;29;20032;-88
2023/01/04 10:42:46;;;;;;;8.13;2.80;;;;;;;10.23;100.00;101355.78;4917954;29;20033;-89
2023/01/04 10:45:19;;;;;;;6.22;2.75;;;;;;;10.25;100.00;101335.59;4917363;29;20403;-88
2023/01/04 10:48:02;;;;;;;9.82;3.28;;;;;;;10.24;100.00;101336.59;4916776;29;20059;-90
2023/01/04 10:50:58;;;;;;;13.05;3.20;;;;;;;10.27;100.00;101344.34;4918891;29;20044;-89
2023/01/04 10:54:02;;;;;;;9.23;3.00;;;;;;;10.24;100.00;101323.06;4920174;29;20035;-89
2023/01/04 10:56:42;;;;;;;10.67;2.60;;;;;;;10.27;100.00;101322.66;4837704;29;20061;-90
2023/01/04 10:59:36;;;;;;;;;;;;;;;;;;;;;
2023/01/04 11:02:26;;;;;;;10.02;2.35;;;;;;;10.28;100.00;101324.31;4918507;29;20376;-89
2023/01/04 11:05:45;;;;;;;9.75;2.50;;;;;;;10.30;100.00;101356.66;4916977;29;20063;-89
2023/01/04 11:08:39;;;;;;;6.35;2.13;;;;;;;10.28;100.00;101327.03;4899601;29;20563;-89
2023/01/04 11:11:23;;;;;;;4.97;1.77;;;;;;;10.23;100.00;101351.22;4916809;29;20048;-90
2023/01/04 11:14:05;;;;;;;10.25;2.22;;;;;;;10.28;100.00;101329.75;4917350;29;20483;-88
2023/01/04 11:16:42;;;;;;;4.63;1.73;;;;;;;10.29;100.00;101344.13;4916802;29;20138;-88
2023/01/04 11:19:13;;;;;;;3.50;1.80;;;;;;;10.24;100.00;101333.91;4901735;29;20450;-89
2023/01/04 11:21:59;;;;;;;;;;;;;;;;;;;;;
2023/01/04 11:24:35;;;;;;;2.73;1.40;;;;;;;10.29;100.00;101334.16;4917704;29;20032;-89
2023/01/04 11:27:09;;;;;;;4.50;1.65;;;;;;;10.25;100.00;101326.63;4916038;29;20039;-88
2023/01/04 11:29:51;;;;;;;6.53;2.05;;;;;;;10.28;100.00;101329.75;4916324;29;20469;-88
2023/01/04 11:32:36;;;;;;;;;;;;;;;;;;;;;
2023/01/04 11:35:32;;;;;;;5.13;1.85;;;;;;;10.26;100.00;101323.69;4918420;29;20028;-89
2023/01/04 11:38:10;;;;;;;4.57;1.40;;;;;;;10.30;100.00;101354.78;4916203;29;20091;-88
2023/01/04 11:40:38;;;;;;;4.43;1.58;;;;;;;10.31;100.00;101320.38;4916928;29;20036;-88
2023/01/04 11:43:28;;;;;;;2.83;1.52;;;;;;;10.29;100.00;101347.72;4917450;29;20032;-88
2023/01/04 11:46:06;;;;;;;2.97;1.52;;;;;;;10.29;100.00;101336.84;4917798;29;20039;-88
2023/01/04 11:48:56;;;;;;;6.22;1.17;;;;;;;10.35;100.00;101362.38;4915287;29;20127;-88
2023/01/04 11:51:48;;;;;;;2.10;0.97;;;;;;;10.31;100.00;101356.47;4916133;29;20038;-88
2023/01/04 11:54:13;;;;;;;4.70;1.30;;;;;;;10.32;100.00;101370.88;4916887;29;20055;-88
2023/01/04 11:57:04;;;;;;;5.30;1.00;;;;;;;10.27;100.00;101335.38;4916472;29;20450;-89
2023/01/04 11:59:38;;;;;;;1.90;0.93;;;;;;;10.27;100.00;101346.22;4916128;29;20088;-89
2023/01/04 12:02:27;;;;;;;4.15;1.10;;;;;;;10.32;100.00;101332.91;4916156;29;20465;-88
2023/01/04 12:05:24;;;;;;;2.28;0.98;;;;;;;10.37;100.00;101359.47;4900787;29;20610;-88
2023/01/04 12:07:57;;;;;;;2.53;0.90;;;;;;;10.33;100.00;101330.03;4916052;29;20123;-88
2023/01/04 12:10:25;;;;;;;1.40;0.80;;;;;;;10.34;100.00;101360.69;4916785;29;20354;-87
2023/01/04 12:12:55;;;;;;;2.28;0.70;;;;;;;10.33;100.00;101349.03;4917776;29;20024;-88
2023/01/04 12:15:36;;;;;;;1.70;0.70;;;;;;;10.33;100.00;101349.03;4916407;29;20043;-89
2023/01/04 12:18:14;;;;;;;2.17;1.05;;;;;;;10.32;100.00;101338.34;4915859;29;20039;-89
2023/01/04 12:20:42;;;;;;;1.13;0.57;;;;;;;10.33;100.00;101340.00;4917983;29;20024;-88
2023/01/04 12:23:17;;;;;;;3.00;0.70;;;;;;;10.33;100.00;101342.69;4915936;29;20412;-89
2023/01/04 12:25:56;;;;;;;;;;;;;;;;;;;;;
2023/01/04 12:28:32;;;;;;;1.98;0.80;;;;;;;10.40;100.00;101345.50;4917584;29;20046;-88
2023/01/04 12:31:25;;;;;;;1.20;0.60;;;;;;;10.42;100.00;101355.06;4915632;29;20095;-89
2023/01/04 12:37:08;;;;;;;1.33;0.70;;;;;;;10.41;100.00;101350.72;4903427;29;20036;-88
2023/01/04 12:39:40;;;;;;;2.15;0.80;;;;;;;10.39;100.00;101324.81;4916793;29;20484;-89
2023/01/04 12:42:06;;;;;;;1.40;0.73;;;;;;;10.46;100.00;101323.81;4919007;29;20028;-88
2023/01/04 12:44:46;;;;;;;1.07;0.57;;;;;;;10.47;100.00;101338.22;4919039;29;20036;-89
2023/01/04 12:50:26;;;;;;;1.00;0.70;;;;;;;10.45;100.00;101338.44;4920645;29;20456;-89
2023/01/04 12:52:59;;;;;;;1.60;0.80;;;;;;;10.48;100.00;101331.72;4919120;29;20043;-89
2023/01/04 12:55:44;;;;;;;;;;;;;;;;;;;;;
2023/01/04 12:58:27;;;;;;;1.30;0.88;;;;;;;10.45;100.00;101319.44;4920732;29;20035;-90
2023/01/04 13:00:57;;;;;;;1.38;0.73;;;;;;;10.41;100.00;101307.31;4918781;29;20035;-89
2023/01/04 13:03:46;;;;;;;2.25;0.80;;;;;;;10.38;100.00;101325.84;4918672;29;20111;-89
2023/01/04 13:06:40;;;;;;;1.77;1.00;;;;;;;10.38;100.00;101324.00;4919018;29;20128;-89
2023/01/04 13:09:27;;;;;;;;;;;;;;;;;;;;;
2023/01/04 13:12:24;;;;;;;1.45;1.00;;;;;;;10.44;100.00;101309.63;4923846;29;20116;-89
2023/01/04 13:14:58;;;;;;;2.15;1.00;;;;;;;10.42;100.00;101313.56;4923581;29;20033;-90
2023/01/04 13:17:28;;;;;;;2.08;1.30;;;;;;;10.42;100.00;101303.53;4919290;29;20058;-88
2023/01/04 13:19:57;;;;;;;2.38;1.40;;;;;;;10.42;100.00;101314.38;4919100;29;20036;-89
2023/01/04 13:22:35;;;;;;;3.10;1.30;;;;;;;10.42;100.00;101314.38;4918494;29;20036;-89
2023/01/04 13:25:15;;;;;;;1.92;1.38;;;;;;;10.44;100.00;101312.31;4918777;29;20437;-89
2023/01/04 13:28:02;;;;;;;3.15;1.38;;;;;;;10.47;100.00;101333.63;4918477;29;20122;-89
2023/01/04 13:30:40;;;;;;;1.73;1.15;;;;;;;10.47;100.00;101341.75;4918181;29;20123;-88
2023/01/04 13:33:16;;;;;;;1.92;1.38;;;;;;;10.44;100.00;101339.47;4918949;29;20073;-89
2023/01/04 13:35:42;;;;;;;2.60;1.77;;;;;;;10.45;100.00;101332.13;4918600;29;20461;-89
2023/01/04 13:38:19;;;;;;;3.38;2.00;;;;;;;10.45;100.00;101318.56;4917809;29;20056;-89
2023/01/04 13:40:46;;;;;;;3.40;1.73;;;;;;;10.46;100.00;101321.09;4918169;29;20168;-89
2023/01/04 13:43:23;;;;;;;3.83;1.75;;;;;;;10.57;100.00;101348.69;4919477;29;20116;-89
2023/01/04 13:46:13;;;;;;;5.53;2.30;;;;;;;10.53;100.00;101324.66;4918097;29;20123;-88
2023/01/04 13:49:00;;;;;;;4.40;2.33;;;;;;;10.49;100.00;101326.09;4919559;29;20040;-88
2023/01/04 13:51:33;;;;;;;3.60;2.00;;;;;;;10.49;100.00;101314.44;4918686;29;20028;-90
2023/01/04 13:54:01;;;;;;;3.95;2.03;;;;;;;10.50;100.00;101316.09;4918046;29;20036;-88
2023/01/04 13:56:40;;;;;;;3.83;2.25;;;;;;;10.51;100.00;101309.63;4917734;29;20454;-87
2023/01/04 13:59:16;;;;;;;4.03;2.07;;;;;;;10.52;100.00;101322.16;4902621;29;20040;-88
2023/01/04 14:01:49;;;;;;;3.72;1.80;;;;;;;10.52;100.00;101316.72;4919958;29;20032;-88
2023/01/04 14:04:38;;;;;;;;;;;;;;;;;;;;;
2023/01/04 14:07:04;;;;;;;3.20;1.95;;;;;;;10.53;100.00;101307.56;4925292;29;20123;-89
2023/01/04 14:10:00;;;;;;;4.07;2.73;;;;;;;10.56;100.00;101311.75;4917861;29;20086;-88
2023/01/04 14:12:58;;;;;;;5.88;2.70;;;;;;;10.59;100.00;101311.34;4918874;29;20477;-88
2023/01/04 14:15:32;;;;;;;4.95;2.70;;;;;;;10.61;100.00;101318.22;4917493;29;20035;-88